createdAt,value
2023-05-14T00:02:02.450Z,0.58
2023-05-14T00:05:10.441Z,0.64
2023-05-14T00:11:36.581Z,0.57
2023-05-14T00:14:40.710Z,0.48
2023-05-14T00:17:44.471Z,0.40
2023-05-14T00:20:48.396Z,0.59
2023-05-14T00:23:52.903Z,0.57
2023-05-14T00:26:57.117Z,0.58
2023-05-14T00:30:07.167Z,0.60
2023-05-14T00:33:13.407Z,0.49
2023-05-14T00:36:39.878Z,0.42
2023-05-14T00:39:42.172Z,0.54
2023-05-14T00:42:47.313Z,0.44
2023-05-14T00:45:51.460Z,0.46
2023-05-14T00:48:55.403Z,0.46
2023-05-14T00:51:59.612Z,0.66
2023-05-14T00:55:03.888Z,0.42
2023-05-14T00:58:12.346Z,0.39
2023-05-14T01:01:26.925Z,0.45
2023-05-14T01:04:33.618Z,0.39
2023-05-14T01:07:39.174Z,0.46
2023-05-14T01:10:44.753Z,0.56
2023-05-14T01:13:53.720Z,0.49
2023-05-14T01:16:58.274Z,0.42
2023-05-14T01:20:06.473Z,0.47
2023-05-14T01:23:10.783Z,0.41
2023-05-14T01:26:16.464Z,0.47
2023-05-14T01:29:26.222Z,0.47
2023-05-14T01:32:30.273Z,0.44
2023-05-14T01:35:37.076Z,0.48
2023-05-14T01:38:42.249Z,0.46
2023-05-14T01:41:46.348Z,0.48
2023-05-14T01:44:50.272Z,0.46
2023-05-14T01:47:54.989Z,0.71
2023-05-14T01:51:02.373Z,0.48
2023-05-14T01:54:13.157Z,0.57
2023-05-14T01:57:21.884Z,0.63
2023-05-14T02:00:29.055Z,0.86
2023-05-14T02:03:34.797Z,0.50
2023-05-14T02:06:38.656Z,0.42
2023-05-14T02:09:49.238Z,0.46
2023-05-14T02:13:16.251Z,0.53
2023-05-14T02:16:18.703Z,0.48
2023-05-14T02:19:26.430Z,0.52
2023-05-14T02:22:30.763Z,0.45
2023-05-14T02:25:41.266Z,0.55
2023-05-14T02:28:45.626Z,0.60
2023-05-14T02:32:37.085Z,0.69
2023-05-14T02:35:17.106Z,0.58
2023-05-14T02:38:26.278Z,0.51
2023-05-14T02:41:31.785Z,0.50
2023-05-14T02:44:39.647Z,0.56
2023-05-14T02:47:46.280Z,0.56
2023-05-14T02:54:16.082Z,0.45
2023-05-14T02:57:41.116Z,0.49
2023-05-14T03:01:02.321Z,0.57
2023-05-14T03:04:08.294Z,0.50
2023-05-14T03:07:14.891Z,0.49
2023-05-14T03:10:41.709Z,0.64
2023-05-14T03:13:54.439Z,0.38
2023-05-14T03:16:58.640Z,0.39
2023-05-14T03:20:07.123Z,0.47
2023-05-14T03:23:15.642Z,0.49
2023-05-14T03:27:07.020Z,0.55
2023-05-14T03:29:44.559Z,0.63
2023-05-14T03:32:49.944Z,0.60
2023-05-14T03:39:17.132Z,0.57
2023-05-14T03:42:27.428Z,0.41
2023-05-14T03:45:31.163Z,0.68
2023-05-14T03:48:39.472Z,0.56
2023-05-14T03:51:43.821Z,0.49
2023-05-14T03:54:48.085Z,0.69
2023-05-14T03:57:52.273Z,0.53
2023-05-14T04:00:56.334Z,0.72
2023-05-14T04:04:00.069Z,0.74
2023-05-14T04:07:03.754Z,0.63
2023-05-14T04:10:07.672Z,0.58
2023-05-14T04:13:11.453Z,0.70
2023-05-14T04:16:15.465Z,0.63
2023-05-14T04:19:19.426Z,0.75
2023-05-14T04:22:23.622Z,0.68
2023-05-14T04:25:30.546Z,0.64
2023-05-14T04:28:34.735Z,0.69
2023-05-14T04:31:39.842Z,0.92
2023-05-14T04:34:43.886Z,0.77
2023-05-14T04:37:47.658Z,0.87
2023-05-14T04:40:52.092Z,0.85
2023-05-14T04:43:56.064Z,0.77
2023-05-14T04:47:00.283Z,0.79
2023-05-14T04:50:03.862Z,0.81
2023-05-14T04:53:08.097Z,0.92
2023-05-14T04:56:12.213Z,0.89
2023-05-14T04:59:15.928Z,1.03
2023-05-14T05:02:20.935Z,1.06
2023-05-14T05:05:25.124Z,1.07
2023-05-14T05:08:29.151Z,1.18
2023-05-14T05:11:33.351Z,1.04
2023-05-14T05:14:37.050Z,1.25
2023-05-14T05:17:41.101Z,1.07
2023-05-14T05:20:45.005Z,0.99
2023-05-14T05:23:49.082Z,1.36
2023-05-14T05:26:53.258Z,1.26
2023-05-14T05:29:57.076Z,1.32
2023-05-14T05:33:01.121Z,1.31
2023-05-14T05:36:05.259Z,1.33
2023-05-14T05:39:09.317Z,1.03
2023-05-14T05:42:13.077Z,1.36
2023-05-14T05:45:16.822Z,1.37
2023-05-14T05:48:20.896Z,1.35
2023-05-14T05:51:24.794Z,1.29
2023-05-14T05:54:28.848Z,1.24
2023-05-14T05:57:32.681Z,1.34
2023-05-14T06:00:36.702Z,1.26
2023-05-14T06:03:40.580Z,1.13
2023-05-14T06:06:44.432Z,1.37
2023-05-14T06:09:48.684Z,1.17
2023-05-14T06:12:52.647Z,1.24
2023-05-14T06:15:56.491Z,1.29
2023-05-14T06:19:00.454Z,1.13
2023-05-14T06:22:04.746Z,1.25
2023-05-14T06:25:11.064Z,1.07
2023-05-14T06:28:22.363Z,1.21
2023-05-14T06:31:26.512Z,1.36
2023-05-14T06:34:36.404Z,1.28
2023-05-14T06:37:40.268Z,1.14
2023-05-14T06:40:44.379Z,1.31
2023-05-14T06:43:48.600Z,1.37
2023-05-14T06:46:53.013Z,1.13
2023-05-14T06:49:56.908Z,1.14
2023-05-14T06:53:00.884Z,1.14
2023-05-14T06:56:04.713Z,1.15
2023-05-14T06:59:08.900Z,1.12
2023-05-14T07:02:13.191Z,1.11
2023-05-14T07:05:19.623Z,1.12
2023-05-14T07:08:23.771Z,1.04
2023-05-14T07:11:27.681Z,0.96
2023-05-14T07:14:31.921Z,0.95
2023-05-14T07:17:36.074Z,1.14
2023-05-14T07:20:40.155Z,1.28
2023-05-14T07:23:44.183Z,0.99
2023-05-14T07:26:52.502Z,1.01
2023-05-14T07:30:00.803Z,1.18
2023-05-14T07:33:07.363Z,1.14
2023-05-14T07:36:11.223Z,0.99
2023-05-14T07:39:18.537Z,1.00
2023-05-14T07:42:35.214Z,1.02
2023-05-14T07:45:40.996Z,0.90
2023-05-14T07:48:47.592Z,1.14
2023-05-14T07:51:52.885Z,1.11
2023-05-14T07:54:56.603Z,1.11
2023-05-14T07:58:01.712Z,1.12
2023-05-14T08:01:05.857Z,1.01
2023-05-14T08:04:10.929Z,0.94
2023-05-14T08:07:17.788Z,0.90
2023-05-14T08:13:44.018Z,1.02
2023-05-14T08:16:47.964Z,1.02
2023-05-14T08:19:52.145Z,0.77
2023-05-14T08:22:57.453Z,0.91
2023-05-14T08:26:02.846Z,0.84
2023-05-14T08:29:07.474Z,0.76
2023-05-14T08:32:22.911Z,0.78
2023-05-14T08:35:28.441Z,0.93
2023-05-14T08:38:36.663Z,0.84
2023-05-14T08:41:41.052Z,0.75
2023-05-14T08:44:46.320Z,0.81
2023-05-14T08:47:50.897Z,0.86
2023-05-14T08:50:55.110Z,0.77
2023-05-14T08:54:03.019Z,0.84
2023-05-14T09:00:25.077Z,0.69
2023-05-14T09:03:30.574Z,0.73
2023-05-14T09:06:36.538Z,0.91
2023-05-14T09:09:40.676Z,0.66
2023-05-14T09:12:44.294Z,0.79
2023-05-14T09:15:48.409Z,0.78
2023-05-14T09:18:52.225Z,0.81
2023-05-14T09:22:00.050Z,0.58
2023-05-14T09:25:03.990Z,0.50
2023-05-14T09:28:18.501Z,0.66
2023-05-14T09:31:22.752Z,0.61
2023-05-14T09:34:26.647Z,0.83
2023-05-14T09:37:30.664Z,0.73
2023-05-14T09:40:34.664Z,0.54
2023-05-14T09:43:39.797Z,0.74
2023-05-14T09:46:47.049Z,0.74
2023-05-14T09:49:54.107Z,0.59
2023-05-14T09:53:02.844Z,0.70
2023-05-14T09:56:39.996Z,0.87
2023-05-14T09:59:32.047Z,0.68
2023-05-14T10:02:36.082Z,0.80
2023-05-14T10:05:43.662Z,0.77
2023-05-14T10:08:47.824Z,0.87
2023-05-14T10:11:54.311Z,0.76
2023-05-14T10:14:58.350Z,0.89
2023-05-14T10:18:02.730Z,0.75
2023-05-14T10:21:06.709Z,0.73
2023-05-14T10:24:18.040Z,0.68
2023-05-14T10:27:22.139Z,0.65
2023-05-14T10:30:26.250Z,0.58
2023-05-14T10:33:30.252Z,0.66
2023-05-14T10:36:34.142Z,0.52
2023-05-14T10:39:38.102Z,0.70
2023-05-14T10:42:42.120Z,0.53
2023-05-14T10:45:49.909Z,0.52
2023-05-14T10:48:53.867Z,0.48
2023-05-14T10:51:57.706Z,0.35
2023-05-14T10:55:03.461Z,0.47
2023-05-14T10:58:07.749Z,0.38
2023-05-14T11:01:11.740Z,0.49
2023-05-14T11:04:15.634Z,0.49
2023-05-14T11:07:19.605Z,0.51
2023-05-14T11:10:28.467Z,0.40
2023-05-14T11:13:32.924Z,0.36
2023-05-14T11:16:37.051Z,0.41
2023-05-14T11:19:40.937Z,0.48
2023-05-14T11:22:44.668Z,0.41
2023-05-14T11:25:48.801Z,0.51
2023-05-14T11:28:52.777Z,0.34
2023-05-14T11:31:56.901Z,0.35
2023-05-14T11:35:00.534Z,0.35
2023-05-14T11:38:06.076Z,0.32
2023-05-14T11:41:10.770Z,0.36
2023-05-14T11:44:14.892Z,0.29
2023-05-14T11:47:18.875Z,0.31
2023-05-14T11:50:23.041Z,0.32
2023-05-14T11:53:27.428Z,0.32
2023-05-14T11:56:31.293Z,0.31
2023-05-14T11:59:35.700Z,0.38
2023-05-14T12:02:43.506Z,0.33
2023-05-14T12:05:47.625Z,0.22
2023-05-14T12:08:51.262Z,0.31
2023-05-14T12:11:55.251Z,0.30
2023-05-14T12:14:59.427Z,0.27
2023-05-14T12:18:03.872Z,0.28
2023-05-14T12:27:37.454Z,0.25
2023-05-14T12:30:43.612Z,0.18
2023-05-14T12:33:47.584Z,0.31
2023-05-14T12:36:51.461Z,0.20
2023-05-14T12:39:55.463Z,0.24
2023-05-14T12:42:59.166Z,0.29
2023-05-14T12:46:03.147Z,0.21
2023-05-14T12:49:09.873Z,0.18
2023-05-14T12:55:26.530Z,0.25
2023-05-14T12:58:40.773Z,0.27
2023-05-14T13:01:46.157Z,0.19
2023-05-14T13:04:53.538Z,0.25
2023-05-14T13:07:57.441Z,0.43
2023-05-14T13:11:04.261Z,0.36
2023-05-14T13:14:08.443Z,0.26
2023-05-14T13:17:12.442Z,0.21
2023-05-14T13:20:16.383Z,0.27
2023-05-14T13:23:20.808Z,0.17
2023-05-14T13:26:25.710Z,0.30
2023-05-14T13:29:30.200Z,0.24
2023-05-14T13:32:35.831Z,0.27
2023-05-14T13:35:40.158Z,0.23
2023-05-14T13:38:47.507Z,0.21
2023-05-14T13:41:53.030Z,0.20
2023-05-14T13:45:01.282Z,0.31
2023-05-14T13:48:05.546Z,0.36
2023-05-14T13:51:10.506Z,0.24
2023-05-14T13:54:14.458Z,0.19
2023-05-14T13:57:19.873Z,0.17
2023-05-14T14:00:24.293Z,0.21
2023-05-14T14:03:29.831Z,0.24
2023-05-14T14:06:35.073Z,0.22
2023-05-14T14:09:38.909Z,0.26
2023-05-14T14:12:42.918Z,0.15
2023-05-14T14:15:48.163Z,0.21
2023-05-14T14:18:53.739Z,0.22
2023-05-14T14:22:04.918Z,0.30
2023-05-14T14:25:44.290Z,0.20
2023-05-14T14:39:44.111Z,0.15
2023-05-14T14:46:17.151Z,0.17
2023-05-14T15:01:48.878Z,0.16
2023-05-14T15:04:55.694Z,0.23
2023-05-14T15:07:59.705Z,0.16
2023-05-14T15:11:03.623Z,0.13
2023-05-14T15:17:37.125Z,0.23
2023-05-14T15:24:15.801Z,0.18
2023-05-14T15:27:23.074Z,0.27
2023-05-14T15:30:30.163Z,0.21
2023-05-14T15:39:42.659Z,0.18
2023-05-14T15:42:47.090Z,0.23
2023-05-14T15:45:50.809Z,0.27
2023-05-14T15:48:54.709Z,0.20
2023-05-14T15:51:58.445Z,0.15
2023-05-14T15:55:02.370Z,0.24
2023-05-14T15:58:07.987Z,0.26
2023-05-14T16:01:12.157Z,0.17
2023-05-14T16:04:16.058Z,0.28
2023-05-14T16:07:22.063Z,0.23
2023-05-14T16:21:48.105Z,0.22
2023-05-14T16:24:52.605Z,0.19
2023-05-14T16:27:56.749Z,0.26
2023-05-14T16:31:02.810Z,0.20
2023-05-14T16:34:07.929Z,0.34
2023-05-14T16:37:13.169Z,0.20
2023-05-14T16:40:17.563Z,0.30
2023-05-14T16:46:50.926Z,0.30
2023-05-14T16:49:55.122Z,0.30
2023-05-14T16:52:59.550Z,0.24
2023-05-14T16:56:03.355Z,0.22
2023-05-14T16:59:07.389Z,0.24
2023-05-14T17:02:11.721Z,0.17
2023-05-14T17:05:15.726Z,0.32
2023-05-14T17:08:20.942Z,0.39
2023-05-14T17:11:27.151Z,0.12
2023-05-14T17:14:31.078Z,0.31
2023-05-14T17:17:36.715Z,0.20
2023-05-14T17:20:42.256Z,0.20
2023-05-14T17:23:46.761Z,0.26
2023-05-14T17:26:50.973Z,0.20
2023-05-14T17:29:54.986Z,0.33
2023-05-14T17:33:02.862Z,0.23
2023-05-14T17:36:08.117Z,0.17
2023-05-14T17:39:12.172Z,0.20
2023-05-14T17:42:17.774Z,0.22
2023-05-14T17:45:26.581Z,0.31
2023-05-14T17:48:31.045Z,0.32
2023-05-14T17:51:36.112Z,0.21
2023-05-14T17:54:40.255Z,0.25
2023-05-14T17:57:44.175Z,0.16
2023-05-14T18:00:48.176Z,0.35
2023-05-14T18:03:52.238Z,0.19
2023-05-14T18:06:56.384Z,0.24
2023-05-14T18:10:00.436Z,0.17
2023-05-14T18:13:05.966Z,0.29
2023-05-14T18:16:10.039Z,0.20
2023-05-14T18:19:14.122Z,0.20
2023-05-14T18:22:18.139Z,0.23
2023-05-14T18:25:22.065Z,0.13
2023-05-14T18:28:26.384Z,0.20
2023-05-14T18:31:30.302Z,0.19
2023-05-14T18:34:38.762Z,0.18
2023-05-14T18:37:42.914Z,0.17
2023-05-14T18:40:48.070Z,0.26
2023-05-14T18:43:52.245Z,0.17
2023-05-14T18:46:58.065Z,0.21
2023-05-14T18:50:15.354Z,0.09
2023-05-14T18:53:19.650Z,0.27
2023-05-14T18:56:26.942Z,0.19
2023-05-14T18:59:41.284Z,0.18
2023-05-14T19:02:45.890Z,0.23
2023-05-14T19:06:13.030Z,0.22
2023-05-14T19:09:18.525Z,0.15
2023-05-14T19:12:23.782Z,0.28
2023-05-14T19:15:28.241Z,0.21
2023-05-14T19:18:36.979Z,0.18
2023-05-14T19:24:24.143Z,0.10
2023-05-14T19:27:28.140Z,0.11
2023-05-14T19:30:33.357Z,0.18
2023-05-14T19:33:37.373Z,0.18
2023-05-14T19:36:41.156Z,0.09
2023-05-14T19:39:45.081Z,0.10
2023-05-14T19:42:48.914Z,0.10
2023-05-14T19:45:53.021Z,0.31
2023-05-14T19:48:59.182Z,0.09
2023-05-14T19:52:02.905Z,0.12
2023-05-14T19:55:15.555Z,0.16
2023-05-14T19:58:19.304Z,0.22
2023-05-14T20:01:23.700Z,0.11
2023-05-14T20:04:31.690Z,0.19
2023-05-14T20:07:36.006Z,0.21
2023-05-14T20:10:40.835Z,0.25
2023-05-14T20:13:44.771Z,0.13
2023-05-14T20:16:49.013Z,0.31
2023-05-14T20:19:57.055Z,0.21
2023-05-14T20:23:01.155Z,0.20
2023-05-14T20:26:07.185Z,0.27
2023-05-14T20:29:11.343Z,0.17
2023-05-14T20:32:15.334Z,0.16
2023-05-14T20:35:20.251Z,0.28
2023-05-14T20:38:24.276Z,0.48
2023-05-14T20:41:28.455Z,0.27
2023-05-14T20:44:32.837Z,0.22
2023-05-14T20:47:36.929Z,0.16
2023-05-14T20:50:40.856Z,0.32
2023-05-14T20:53:44.852Z,0.29
2023-05-14T20:56:48.800Z,0.20
2023-05-14T20:59:53.035Z,0.28
2023-05-14T21:02:57.245Z,0.29
2023-05-14T21:06:01.324Z,0.26
2023-05-14T21:09:05.514Z,0.15
2023-05-14T21:12:09.755Z,0.26
2023-05-14T21:15:13.884Z,0.23
2023-05-14T21:18:17.896Z,0.16
2023-05-14T21:21:22.116Z,0.23
2023-05-14T21:24:26.302Z,0.21
2023-05-14T21:27:30.273Z,0.26
2023-05-14T21:30:34.278Z,0.29
2023-05-14T21:33:38.290Z,0.20
2023-05-14T21:36:42.454Z,0.37
2023-05-14T21:39:46.609Z,0.37
2023-05-14T21:42:50.418Z,0.29
2023-05-14T21:45:54.616Z,0.23
2023-05-14T21:48:58.687Z,0.20
2023-05-14T21:52:02.940Z,0.27
2023-05-14T21:55:07.021Z,0.19
2023-05-14T21:58:10.746Z,0.27
2023-05-14T22:01:14.695Z,0.26
2023-05-14T22:04:18.681Z,0.17
2023-05-14T22:07:22.490Z,0.23
2023-05-14T22:10:26.356Z,0.24
2023-05-14T22:13:29.927Z,0.35
2023-05-14T22:16:33.892Z,0.35
2023-05-14T22:19:37.937Z,0.30
2023-05-14T22:22:41.950Z,0.22
2023-05-14T22:25:46.155Z,0.19
2023-05-14T22:28:49.934Z,0.28
2023-05-14T22:31:54.135Z,0.23
2023-05-14T22:34:59.805Z,0.30
2023-05-14T22:38:05.538Z,0.17
2023-05-14T22:41:09.614Z,0.22
2023-05-14T22:44:13.245Z,0.22
2023-05-14T22:47:17.400Z,0.31
2023-05-14T22:50:21.662Z,0.17
2023-05-14T22:53:25.615Z,0.22
2023-05-14T22:56:29.851Z,0.31
2023-05-14T22:59:34.865Z,0.46
2023-05-14T23:02:38.938Z,0.20
2023-05-14T23:05:44.005Z,0.26
2023-05-14T23:08:48.058Z,0.19
2023-05-14T23:11:51.987Z,0.25
2023-05-14T23:14:55.834Z,0.28
2023-05-14T23:17:59.877Z,0.19
2023-05-14T23:21:03.950Z,0.25
2023-05-14T23:24:07.603Z,0.28
2023-05-14T23:27:11.681Z,0.31
2023-05-14T23:30:15.519Z,0.22
2023-05-14T23:33:19.681Z,0.22
2023-05-14T23:36:23.819Z,0.24
2023-05-14T23:39:27.820Z,0.24
2023-05-14T23:42:31.769Z,0.22
2023-05-14T23:45:35.916Z,0.24
2023-05-14T23:48:41.170Z,0.38
2023-05-14T23:51:45.545Z,0.21
2023-05-14T23:54:49.607Z,0.23
2023-05-14T23:57:53.323Z,0.24
